createdAt,value
2018-07-19T00:00:25.094Z,18.32
2018-07-19T00:01:25.671Z,18.34
2018-07-19T00:02:26.227Z,18.30
2018-07-19T00:03:26.791Z,18.26
2018-07-19T00:04:27.352Z,18.30
2018-07-19T00:05:27.918Z,18.32
2018-07-19T00:06:28.483Z,18.20
2018-07-19T00:07:29.062Z,18.25
2018-07-19T00:08:29.648Z,18.12
2018-07-19T00:09:30.210Z,18.14
2018-07-19T00:10:30.794Z,18.12
2018-07-19T00:11:31.354Z,18.14
2018-07-19T00:12:31.924Z,18.04
2018-07-19T00:13:32.496Z,18.04
2018-07-19T00:14:33.060Z,17.95
2018-07-19T00:15:33.622Z,18.00
2018-07-19T00:16:34.185Z,17.92
2018-07-19T00:17:34.748Z,17.87
2018-07-19T00:18:35.312Z,17.92
2018-07-19T00:19:35.876Z,17.89
2018-07-19T00:20:36.438Z,17.86
2018-07-19T00:21:37.000Z,17.85
2018-07-19T00:22:37.565Z,17.80
2018-07-19T00:23:38.127Z,17.80
2018-07-19T00:24:38.692Z,17.77
2018-07-19T00:25:39.275Z,17.79
2018-07-19T00:26:39.839Z,17.70
2018-07-19T00:27:40.428Z,17.79
2018-07-19T00:28:40.987Z,17.65
2018-07-19T00:29:41.550Z,17.52
2018-07-19T00:30:42.111Z,17.60
2018-07-19T00:31:42.674Z,17.59
2018-07-19T00:32:43.220Z,17.59
2018-07-19T00:33:43.766Z,17.59
2018-07-19T00:34:44.325Z,17.59
2018-07-19T00:35:44.877Z,17.54
2018-07-19T00:36:45.429Z,17.41
2018-07-19T00:37:45.975Z,17.39
2018-07-19T00:38:46.534Z,17.37
2018-07-19T00:39:47.077Z,17.33
2018-07-19T00:40:47.627Z,17.24
2018-07-19T00:41:48.185Z,17.26
2018-07-19T00:42:48.738Z,17.27
2018-07-19T00:43:49.289Z,17.29
2018-07-19T00:44:49.844Z,17.21
2018-07-19T00:45:50.401Z,17.18
2018-07-19T00:46:50.955Z,17.16
2018-07-19T00:47:51.503Z,17.14
2018-07-19T00:48:52.059Z,17.12
2018-07-19T00:49:52.614Z,17.15
2018-07-19T00:50:53.170Z,17.00
2018-07-19T00:51:53.716Z,17.06
2018-07-19T00:52:54.264Z,17.04
2018-07-19T00:53:54.812Z,17.04
2018-07-19T00:54:55.365Z,17.00
2018-07-19T00:55:55.916Z,16.96
2018-07-19T00:56:56.469Z,16.94
2018-07-19T00:57:57.025Z,17.00
2018-07-19T00:58:57.582Z,17.00
2018-07-19T00:59:58.148Z,16.90
2018-07-19T01:00:58.688Z,16.98
2018-07-19T01:01:59.237Z,16.90
2018-07-19T01:02:59.792Z,16.91
2018-07-19T01:04:00.341Z,16.98
2018-07-19T01:05:00.889Z,16.90
2018-07-19T01:06:01.440Z,16.83
2018-07-19T01:07:01.986Z,16.81
2018-07-19T01:08:02.545Z,16.81
2018-07-19T01:09:03.100Z,16.87
2018-07-19T01:10:03.650Z,16.87
2018-07-19T01:11:04.198Z,16.86
2018-07-19T01:12:04.756Z,16.87
2018-07-19T01:13:05.310Z,16.75
2018-07-19T01:14:05.854Z,16.75
2018-07-19T01:15:06.400Z,16.76
2018-07-19T01:16:06.953Z,16.76
2018-07-19T01:17:07.500Z,16.75
2018-07-19T01:18:08.052Z,16.73
2018-07-19T01:19:08.606Z,16.76
2018-07-19T01:20:09.177Z,16.73
2018-07-19T01:21:09.699Z,16.68
2018-07-19T01:22:10.252Z,16.79
2018-07-19T01:23:10.802Z,16.71
2018-07-19T01:24:11.348Z,16.63
2018-07-19T01:25:11.906Z,16.51
2018-07-19T01:26:12.462Z,16.56
2018-07-19T01:27:13.021Z,16.56
2018-07-19T01:28:13.573Z,16.53
2018-07-19T01:29:14.128Z,16.50
2018-07-19T01:30:14.680Z,16.43
2018-07-19T01:31:15.225Z,16.56
2018-07-19T01:32:15.778Z,16.53
2018-07-19T01:33:16.330Z,16.38
2018-07-19T01:34:16.874Z,16.42
2018-07-19T01:35:17.420Z,16.42
2018-07-19T01:36:17.968Z,16.36
2018-07-19T01:37:18.517Z,16.42
2018-07-19T01:38:19.072Z,16.38
2018-07-19T01:39:19.626Z,16.36
2018-07-19T01:40:20.173Z,16.24
2018-07-19T01:41:20.723Z,16.38
2018-07-19T01:42:21.276Z,16.33
2018-07-19T01:43:21.826Z,16.21
2018-07-19T01:44:22.378Z,16.24
2018-07-19T01:45:22.937Z,16.31
2018-07-19T01:46:23.486Z,16.25
2018-07-19T01:47:24.028Z,16.13
2018-07-19T01:48:24.582Z,16.17
2018-07-19T01:49:25.138Z,16.13
2018-07-19T01:50:25.688Z,16.17
2018-07-19T01:51:26.251Z,16.13
2018-07-19T01:52:26.804Z,16.04
2018-07-19T01:53:27.349Z,16.01
2018-07-19T01:54:27.905Z,15.95
2018-07-19T01:55:28.459Z,15.84
2018-07-19T01:56:29.006Z,15.89
2018-07-19T01:57:29.554Z,15.87
2018-07-19T01:58:30.115Z,15.77
2018-07-19T01:59:30.661Z,15.79
2018-07-19T02:00:31.213Z,15.84
2018-07-19T02:01:31.762Z,15.82
2018-07-19T02:02:32.307Z,15.79
2018-07-19T02:03:32.865Z,15.77
2018-07-19T02:04:33.437Z,15.75
2018-07-19T02:05:33.965Z,15.67
2018-07-19T02:06:34.513Z,15.64
2018-07-19T02:07:35.068Z,15.69
2018-07-19T02:08:35.620Z,15.68
2018-07-19T02:09:36.167Z,15.65
2018-07-19T02:10:36.721Z,15.65
2018-07-19T02:11:37.274Z,15.69
2018-07-19T02:12:37.824Z,15.73
2018-07-19T02:13:38.376Z,15.64
2018-07-19T02:14:38.929Z,15.67
2018-07-19T02:15:39.485Z,15.64
2018-07-19T02:16:40.031Z,15.59
2018-07-19T02:17:40.584Z,15.58
2018-07-19T02:18:41.139Z,15.62
2018-07-19T02:19:41.686Z,15.57
2018-07-19T02:20:42.239Z,15.59
2018-07-19T02:21:42.792Z,15.49
2018-07-19T02:22:43.341Z,15.50
2018-07-19T02:23:43.886Z,15.51
2018-07-19T02:24:44.441Z,15.49
2018-07-19T02:25:44.989Z,15.50
2018-07-19T02:26:45.546Z,15.55
2018-07-19T02:27:46.092Z,15.44
2018-07-19T02:28:46.648Z,15.42
2018-07-19T02:29:47.198Z,15.49
2018-07-19T02:30:47.739Z,15.46
2018-07-19T02:31:48.294Z,15.50
2018-07-19T02:32:48.847Z,15.49
2018-07-19T02:33:49.402Z,15.43
2018-07-19T02:34:49.956Z,15.34
2018-07-19T02:35:50.513Z,15.46
2018-07-19T02:36:51.056Z,15.32
2018-07-19T02:37:51.609Z,15.28
2018-07-19T02:38:52.157Z,15.32
2018-07-19T02:39:52.708Z,15.19
2018-07-19T02:40:53.254Z,15.14
2018-07-19T02:41:53.802Z,15.18
2018-07-19T02:42:54.353Z,15.28
2018-07-19T02:43:54.970Z,15.22
2018-07-19T02:44:55.447Z,15.18
2018-07-19T02:45:55.996Z,15.19
2018-07-19T02:46:56.553Z,15.21
2018-07-19T02:47:57.106Z,15.19
2018-07-19T02:48:57.652Z,15.09
2018-07-19T02:49:58.204Z,15.01
2018-07-19T02:50:58.755Z,15.03
2018-07-19T02:51:59.302Z,15.01
2018-07-19T02:52:59.847Z,15.04
2018-07-19T02:54:00.394Z,14.96
2018-07-19T02:55:00.939Z,15.01
2018-07-19T02:56:01.487Z,15.00
2018-07-19T02:57:02.044Z,15.04
2018-07-19T02:58:02.588Z,15.00
2018-07-19T02:59:03.136Z,15.00
2018-07-19T03:00:03.695Z,15.07
2018-07-19T03:01:04.246Z,14.92
2018-07-19T03:02:04.818Z,14.91
2018-07-19T03:03:05.347Z,14.89
2018-07-19T03:04:05.898Z,15.03
2018-07-19T03:05:06.452Z,14.92
2018-07-19T03:06:07.000Z,15.00
2018-07-19T03:07:07.551Z,14.99
2018-07-19T03:08:08.097Z,14.94
2018-07-19T03:09:08.650Z,14.92
2018-07-19T03:10:09.199Z,14.94
2018-07-19T03:11:09.755Z,14.94
2018-07-19T03:12:10.311Z,14.99
2018-07-19T03:13:10.862Z,14.89
2018-07-19T03:14:11.415Z,14.91
2018-07-19T03:15:11.963Z,14.92
2018-07-19T03:16:12.509Z,14.89
2018-07-19T03:17:13.062Z,14.88
2018-07-19T03:18:13.614Z,14.86
2018-07-19T03:19:14.164Z,14.81
2018-07-19T03:20:14.717Z,14.85
2018-07-19T03:21:15.269Z,14.78
2018-07-19T03:22:15.826Z,14.72
2018-07-19T03:23:16.380Z,14.75
2018-07-19T03:24:16.930Z,14.86
2018-07-19T03:25:17.482Z,14.89
2018-07-19T03:26:18.029Z,14.89
2018-07-19T03:27:18.585Z,14.94
2018-07-19T03:28:19.137Z,14.89
2018-07-19T03:29:19.690Z,14.89
2018-07-19T03:30:20.246Z,14.89
2018-07-19T03:31:20.796Z,14.78
2018-07-19T03:32:21.353Z,14.89
2018-07-19T03:33:21.908Z,14.82
2018-07-19T03:34:22.460Z,14.84
2018-07-19T03:35:23.021Z,14.85
2018-07-19T03:36:23.570Z,14.85
2018-07-19T03:37:24.125Z,14.75
2018-07-19T03:38:24.728Z,14.75
2018-07-19T03:39:25.275Z,14.66
2018-07-19T03:40:25.836Z,14.60
2018-07-19T03:41:26.391Z,14.69
2018-07-19T03:42:26.944Z,14.68
2018-07-19T03:43:27.500Z,14.63
2018-07-19T03:44:28.058Z,14.72
2018-07-19T03:45:28.614Z,14.72
2018-07-19T03:46:29.173Z,14.72
2018-07-19T03:47:29.728Z,14.75
2018-07-19T03:48:30.286Z,14.70
2018-07-19T03:49:30.843Z,14.75
2018-07-19T03:50:31.409Z,14.69
2018-07-19T03:51:31.946Z,14.70
2018-07-19T03:52:32.503Z,14.72
2018-07-19T03:53:33.050Z,14.72
2018-07-19T03:54:33.607Z,14.70
2018-07-19T03:55:34.159Z,14.82
2018-07-19T03:56:34.716Z,14.70
2018-07-19T03:57:35.275Z,14.72
2018-07-19T03:58:35.823Z,14.70
2018-07-19T03:59:36.375Z,14.70
2018-07-19T04:00:36.933Z,14.73
2018-07-19T04:01:37.486Z,14.69
2018-07-19T04:02:38.037Z,14.52
2018-07-19T04:03:38.597Z,14.68
2018-07-19T04:04:39.158Z,14.62
2018-07-19T04:05:39.712Z,14.69
2018-07-19T04:06:40.268Z,14.65
2018-07-19T04:07:40.823Z,14.69
2018-07-19T04:08:41.380Z,14.60
2018-07-19T04:09:41.942Z,14.62
2018-07-19T04:10:42.495Z,14.66
2018-07-19T04:11:43.048Z,14.72
2018-07-19T04:12:43.608Z,14.70
2018-07-19T04:13:44.170Z,14.73
2018-07-19T04:14:44.726Z,14.82
2018-07-19T04:15:45.276Z,14.82
2018-07-19T04:16:45.830Z,14.95
2018-07-19T04:17:46.384Z,14.85
2018-07-19T04:18:46.942Z,14.92
2018-07-19T04:19:47.493Z,14.88
2018-07-19T04:20:48.053Z,14.94
2018-07-19T04:21:48.614Z,14.92
2018-07-19T04:22:49.166Z,14.94
2018-07-19T04:23:49.725Z,14.91
2018-07-19T04:24:50.283Z,14.89
2018-07-19T04:25:50.839Z,14.89
2018-07-19T04:26:51.392Z,14.92
2018-07-19T04:27:51.952Z,14.89
2018-07-19T04:28:52.508Z,14.96
2018-07-19T04:29:53.063Z,15.09
2018-07-19T04:30:53.622Z,15.09
2018-07-19T04:31:54.179Z,15.18
2018-07-19T04:32:54.743Z,15.25
2018-07-19T04:33:55.293Z,15.24
2018-07-19T04:34:55.849Z,15.26
2018-07-19T04:35:56.415Z,15.26
2018-07-19T04:36:56.965Z,15.37
2018-07-19T04:37:57.526Z,15.34
2018-07-19T04:38:58.083Z,15.36
2018-07-19T04:39:58.640Z,15.43
2018-07-19T04:40:59.194Z,15.49
2018-07-19T04:41:59.757Z,15.54
2018-07-19T04:43:00.316Z,15.50
2018-07-19T04:44:00.878Z,15.62
2018-07-19T04:45:01.436Z,15.68
2018-07-19T04:46:01.999Z,15.77
2018-07-19T04:47:02.609Z,15.94
2018-07-19T04:48:03.107Z,16.05
2018-07-19T04:49:03.665Z,16.08
2018-07-19T04:50:04.228Z,16.12
2018-07-19T04:51:04.800Z,16.23
2018-07-19T04:52:05.338Z,16.20
2018-07-19T04:53:05.896Z,16.31
2018-07-19T04:54:06.454Z,16.58
2018-07-19T04:55:07.012Z,16.98
2018-07-19T04:56:07.574Z,17.27
2018-07-19T04:57:08.135Z,17.55
2018-07-19T04:58:08.691Z,18.03
2018-07-19T04:59:09.252Z,18.34
2018-07-19T05:00:09.817Z,18.62
2018-07-19T05:01:10.379Z,18.74
2018-07-19T05:02:11.036Z,18.63
2018-07-19T05:03:11.492Z,18.38
2018-07-19T05:04:12.049Z,18.22
2018-07-19T05:05:12.608Z,18.10
2018-07-19T05:06:13.165Z,17.95
2018-07-19T05:07:13.717Z,17.74
2018-07-19T05:08:14.285Z,17.48
2018-07-19T05:09:14.844Z,17.37
2018-07-19T05:10:15.407Z,17.21
2018-07-19T05:11:16.021Z,17.14
2018-07-19T05:12:16.545Z,17.56
2018-07-19T05:13:17.104Z,17.86
2018-07-19T05:14:17.665Z,18.20
2018-07-19T05:15:18.228Z,18.66
2018-07-19T05:16:18.787Z,19.06
2018-07-19T05:17:19.368Z,19.36
2018-07-19T05:18:19.930Z,19.61
2018-07-19T05:19:20.493Z,19.73
2018-07-19T05:20:21.063Z,19.89
2018-07-19T05:21:21.621Z,20.16
2018-07-19T05:22:22.185Z,20.50
2018-07-19T05:23:22.746Z,20.98
2018-07-19T05:24:23.313Z,21.25
2018-07-19T05:25:23.884Z,21.47
2018-07-19T05:26:24.445Z,21.67
2018-07-19T05:27:25.004Z,21.89
2018-07-19T05:28:25.571Z,22.35
2018-07-19T05:29:26.137Z,22.66
2018-07-19T05:30:26.697Z,22.84
2018-07-19T05:31:27.267Z,22.97
2018-07-19T05:32:27.833Z,23.10
2018-07-19T05:33:28.401Z,23.06
2018-07-19T05:34:29.017Z,22.79
2018-07-19T05:35:29.537Z,22.70
2018-07-19T05:36:30.110Z,22.70
2018-07-19T05:37:30.671Z,22.88
2018-07-19T05:38:31.240Z,23.25
2018-07-19T05:39:31.810Z,23.65
2018-07-19T05:40:32.387Z,23.88
2018-07-19T05:41:32.948Z,24.17
2018-07-19T05:42:33.516Z,24.31
2018-07-19T05:43:34.086Z,24.36
2018-07-19T05:44:34.656Z,24.41
2018-07-19T05:45:35.245Z,24.42
2018-07-19T05:46:35.779Z,24.45
2018-07-19T05:47:36.351Z,24.28
2018-07-19T05:48:36.917Z,23.98
2018-07-19T05:49:37.480Z,23.94
2018-07-19T05:50:38.051Z,23.99
2018-07-19T05:51:38.628Z,24.32
2018-07-19T05:52:39.189Z,24.53
2018-07-19T05:53:39.766Z,24.66
2018-07-19T05:54:40.334Z,25.07
2018-07-19T05:55:40.901Z,25.65
2018-07-19T05:56:41.465Z,25.90
2018-07-19T05:57:42.040Z,25.87
2018-07-19T05:58:42.619Z,25.94
2018-07-19T05:59:43.184Z,26.00
2018-07-19T06:00:43.754Z,26.32
2018-07-19T06:01:44.327Z,26.77
2018-07-19T06:02:44.895Z,27.08
2018-07-19T06:03:45.470Z,27.00
2018-07-19T06:04:46.044Z,27.14
2018-07-19T06:05:46.619Z,27.45
2018-07-19T06:06:47.214Z,27.80
2018-07-19T06:07:47.814Z,27.80
2018-07-19T06:08:48.386Z,27.80
2018-07-19T06:09:48.963Z,27.99
2018-07-19T06:10:49.539Z,27.88
2018-07-19T06:11:50.110Z,27.99
2018-07-19T06:12:50.681Z,27.67
2018-07-19T06:13:51.254Z,27.29
2018-07-19T06:14:51.822Z,27.02
2018-07-19T06:15:52.391Z,26.84
2018-07-19T06:16:52.967Z,26.59
2018-07-19T06:17:53.535Z,26.18
2018-07-19T06:18:54.103Z,25.94
2018-07-19T06:19:54.680Z,25.84
2018-07-19T06:20:55.253Z,25.71
2018-07-19T06:21:55.820Z,25.47
2018-07-19T06:22:56.393Z,25.31
2018-07-19T06:23:56.968Z,25.48
2018-07-19T06:24:57.533Z,25.73
2018-07-19T06:25:58.108Z,25.91
2018-07-19T06:26:58.684Z,26.10
2018-07-19T06:27:59.253Z,26.47
2018-07-19T06:28:59.824Z,26.92
2018-07-19T06:30:00.395Z,27.54
2018-07-19T06:31:00.967Z,27.74
2018-07-19T06:32:01.558Z,27.99
2018-07-19T06:33:02.125Z,27.67
2018-07-19T06:34:02.706Z,27.40
2018-07-19T06:35:03.278Z,27.08
2018-07-19T06:36:03.851Z,26.73
2018-07-19T06:37:04.418Z,26.29
2018-07-19T06:38:04.993Z,25.75
2018-07-19T06:39:05.556Z,25.54
2018-07-19T06:40:06.132Z,25.36
2018-07-19T06:41:06.762Z,25.28
2018-07-19T06:42:07.257Z,25.36
2018-07-19T06:43:07.905Z,25.54
2018-07-19T06:44:08.444Z,25.65
2018-07-19T06:45:09.012Z,25.75
2018-07-19T06:46:09.586Z,26.22
2018-07-19T06:47:10.158Z,26.77
2018-07-19T06:48:10.731Z,26.96
2018-07-19T06:49:11.298Z,26.99
2018-07-19T06:50:11.868Z,26.76
2018-07-19T06:51:12.497Z,26.50
2018-07-19T06:52:13.140Z,26.40
2018-07-19T06:53:13.714Z,26.21
2018-07-19T06:54:14.296Z,26.29
2018-07-19T06:55:14.872Z,26.00
2018-07-19T06:56:15.439Z,26.02
2018-07-19T06:57:16.013Z,26.05
2018-07-19T06:58:16.579Z,26.02
2018-07-19T06:59:17.161Z,25.99
2018-07-19T07:00:17.735Z,25.88
2018-07-19T07:01:18.310Z,25.83
2018-07-19T07:02:18.916Z,25.78
2018-07-19T07:03:19.485Z,25.75
2018-07-19T07:04:20.047Z,25.87
2018-07-19T07:05:20.618Z,26.00
2018-07-19T07:06:21.182Z,25.83
2018-07-19T07:07:21.753Z,25.80
2018-07-19T07:08:22.316Z,25.58
2018-07-19T07:09:22.885Z,25.47
2018-07-19T07:10:23.455Z,25.36
2018-07-19T07:11:24.027Z,25.33
2018-07-19T07:12:24.607Z,25.38
2018-07-19T07:13:25.177Z,25.53
2018-07-19T07:14:25.750Z,25.53
2018-07-19T07:15:26.365Z,25.43
2018-07-19T07:16:26.929Z,25.43
2018-07-19T07:17:27.498Z,25.44
2018-07-19T07:18:28.072Z,25.66
2018-07-19T07:19:28.639Z,25.61
2018-07-19T07:20:29.231Z,25.63
2018-07-19T07:21:29.799Z,25.71
2018-07-19T07:22:30.369Z,25.72
2018-07-19T07:23:30.936Z,25.93
2018-07-19T07:24:31.533Z,26.10
2018-07-19T07:25:32.076Z,26.26
2018-07-19T07:26:32.642Z,26.25
2018-07-19T07:27:33.212Z,25.95
2018-07-19T07:28:33.784Z,26.00
2018-07-19T07:29:34.351Z,25.81
2018-07-19T07:30:34.928Z,26.22
2018-07-19T07:31:35.501Z,26.73
2018-07-19T07:32:36.067Z,26.91
2018-07-19T07:33:36.642Z,26.84
2018-07-19T07:34:37.206Z,26.93
2018-07-19T07:35:37.786Z,26.83
2018-07-19T07:36:38.360Z,26.83
2018-07-19T07:37:38.934Z,27.20
2018-07-19T07:38:39.549Z,27.89
2018-07-19T07:39:40.109Z,28.11
2018-07-19T07:40:40.707Z,27.98
2018-07-19T07:41:41.283Z,27.83
2018-07-19T07:42:41.871Z,28.03
2018-07-19T07:43:42.450Z,27.88
2018-07-19T07:44:43.018Z,27.83
2018-07-19T07:45:43.592Z,27.92
2018-07-19T07:46:44.162Z,28.50
2018-07-19T07:47:44.736Z,28.78
2018-07-19T07:48:45.299Z,28.94
2018-07-19T07:49:45.872Z,28.92
2018-07-19T07:50:46.444Z,29.27
2018-07-19T07:51:47.037Z,29.71
2018-07-19T07:52:47.606Z,29.71
2018-07-19T07:53:48.178Z,29.79
2018-07-19T07:54:48.747Z,29.79
2018-07-19T07:55:49.313Z,29.47
2018-07-19T07:56:49.928Z,29.38
2018-07-19T07:57:50.494Z,29.54
2018-07-19T07:58:51.054Z,29.85
2018-07-19T07:59:51.651Z,30.60
2018-07-19T08:00:52.208Z,30.94
2018-07-19T08:01:52.782Z,30.71
2018-07-19T08:02:53.349Z,30.95
2018-07-19T08:03:53.926Z,31.50
2018-07-19T08:04:54.567Z,31.47
2018-07-19T08:05:55.092Z,31.27
2018-07-19T08:06:55.668Z,30.83
2018-07-19T08:07:56.337Z,30.62
2018-07-19T08:08:56.905Z,30.49
2018-07-19T08:09:57.421Z,30.22
2018-07-19T08:10:57.993Z,30.26
2018-07-19T08:11:58.614Z,30.30
2018-07-19T08:12:59.175Z,30.19
2018-07-19T08:13:59.755Z,30.59
2018-07-19T08:15:00.326Z,31.09
2018-07-19T08:16:00.900Z,31.28
2018-07-19T08:17:01.465Z,31.36
2018-07-19T08:18:02.047Z,31.37
2018-07-19T08:19:02.625Z,31.09
2018-07-19T08:20:03.178Z,30.97
2018-07-19T08:21:03.757Z,30.65
2018-07-19T08:22:04.328Z,30.84
2018-07-19T08:23:04.899Z,31.36
2018-07-19T08:24:05.483Z,31.60
2018-07-19T08:25:06.064Z,31.82
2018-07-19T08:26:06.622Z,32.18
2018-07-19T08:27:07.194Z,32.76
2018-07-19T08:28:07.766Z,33.26
2018-07-19T08:29:08.410Z,33.34
2018-07-19T08:30:08.911Z,32.59
2018-07-19T08:31:09.489Z,32.69
2018-07-19T08:32:10.055Z,32.63
2018-07-19T08:33:10.631Z,32.66
2018-07-19T08:34:11.200Z,32.39
2018-07-19T08:35:11.775Z,32.00
2018-07-19T08:36:12.386Z,31.85
2018-07-19T08:37:12.924Z,31.90
2018-07-19T08:38:13.499Z,31.74
2018-07-19T08:39:14.066Z,32.05
2018-07-19T08:40:14.641Z,32.44
2018-07-19T08:41:15.219Z,32.54
2018-07-19T08:42:15.787Z,32.67
2018-07-19T08:43:16.363Z,33.14
2018-07-19T08:44:16.931Z,33.43
2018-07-19T08:45:17.816Z,33.71
2018-07-19T08:46:18.292Z,33.46
2018-07-19T08:47:18.875Z,32.89
2018-07-19T08:48:19.448Z,32.58
2018-07-19T08:49:20.018Z,32.88
2018-07-19T08:50:20.596Z,33.10
2018-07-19T08:51:21.170Z,33.45
2018-07-19T08:52:21.739Z,33.13
2018-07-19T08:53:22.319Z,32.61
2018-07-19T08:54:22.891Z,32.34
2018-07-19T08:55:23.462Z,32.30
2018-07-19T08:56:24.062Z,32.58
2018-07-19T08:57:24.613Z,33.00
2018-07-19T08:58:25.190Z,33.45
2018-07-19T08:59:25.766Z,33.76
2018-07-19T09:00:26.343Z,33.89
2018-07-19T09:01:27.005Z,33.70
2018-07-19T09:02:27.576Z,33.89
2018-07-19T09:03:28.161Z,33.99
2018-07-19T09:04:28.729Z,34.32
2018-07-19T09:05:29.302Z,34.23
2018-07-19T09:06:29.882Z,34.39
2018-07-19T09:07:30.467Z,34.60
2018-07-19T09:08:31.038Z,34.73
2018-07-19T09:09:31.612Z,34.76
2018-07-19T09:10:32.188Z,34.63
2018-07-19T09:11:32.766Z,34.56
2018-07-19T09:12:33.334Z,34.34
2018-07-19T09:13:33.915Z,34.27
2018-07-19T09:14:34.485Z,34.19
2018-07-19T09:15:35.059Z,34.14
2018-07-19T09:16:35.633Z,34.20
2018-07-19T09:17:36.216Z,33.99
2018-07-19T09:18:36.796Z,33.97
2018-07-19T09:19:37.448Z,33.71
2018-07-19T09:20:37.940Z,33.98
2018-07-19T09:21:38.512Z,34.21
2018-07-19T09:22:39.092Z,34.45
2018-07-19T09:23:39.666Z,34.32
2018-07-19T09:24:40.237Z,34.58
2018-07-19T09:25:40.808Z,34.56
2018-07-19T09:26:41.403Z,34.61
2018-07-19T09:27:41.949Z,34.89
2018-07-19T09:28:42.520Z,34.96
2018-07-19T09:29:43.095Z,34.93
2018-07-19T09:30:43.669Z,34.83
2018-07-19T09:31:44.248Z,34.63
2018-07-19T09:32:44.861Z,34.70
2018-07-19T09:33:45.393Z,34.70
2018-07-19T09:34:45.972Z,34.67
2018-07-19T09:35:46.550Z,34.45
2018-07-19T09:36:47.127Z,34.34
2018-07-19T09:37:47.696Z,34.39
2018-07-19T09:38:48.277Z,34.23
2018-07-19T09:39:48.888Z,33.63
2018-07-19T09:40:49.461Z,33.70
2018-07-19T09:41:50.053Z,33.77
2018-07-19T09:42:50.607Z,33.86
2018-07-19T09:43:51.178Z,33.93
2018-07-19T09:44:51.747Z,33.98
2018-07-19T09:45:52.326Z,34.09
2018-07-19T09:46:52.910Z,34.16
2018-07-19T09:47:53.476Z,34.21
2018-07-19T09:48:54.105Z,34.19
2018-07-19T09:49:54.627Z,34.09
2018-07-19T09:50:55.198Z,34.29
2018-07-19T09:51:55.773Z,34.36
2018-07-19T09:52:56.357Z,34.35
2018-07-19T09:53:56.923Z,34.35
2018-07-19T09:54:57.571Z,34.38
2018-07-19T09:55:58.083Z,34.43
2018-07-19T09:56:58.647Z,34.39
2018-07-19T09:57:59.225Z,34.34
2018-07-19T09:58:59.798Z,34.42
2018-07-19T10:00:00.377Z,34.50
2018-07-19T10:01:00.956Z,34.21
2018-07-19T10:02:01.732Z,33.99
2018-07-19T10:03:02.382Z,34.17
2018-07-19T10:04:02.955Z,34.46
2018-07-19T10:05:03.531Z,34.63
2018-07-19T10:06:04.118Z,34.39
2018-07-19T10:07:04.681Z,34.57
2018-07-19T10:08:05.263Z,34.53
2018-07-19T10:09:05.826Z,34.51
2018-07-19T10:10:06.511Z,34.42
2018-07-19T10:11:07.004Z,34.42
2018-07-19T10:12:07.588Z,34.57
2018-07-19T10:13:08.155Z,34.74
2018-07-19T10:14:08.734Z,34.77
2018-07-19T10:15:09.312Z,34.84
2018-07-19T10:16:09.892Z,34.99
2018-07-19T10:17:10.461Z,34.88
2018-07-19T10:18:11.044Z,34.71
2018-07-19T10:19:11.617Z,34.42
2018-07-19T10:20:12.193Z,34.58
2018-07-19T10:21:12.772Z,34.93
2018-07-19T10:22:13.347Z,35.21
2018-07-19T10:23:13.925Z,35.32
2018-07-19T10:24:14.541Z,35.45
2018-07-19T10:25:15.075Z,35.62
2018-07-19T10:26:15.663Z,35.64
2018-07-19T10:27:16.234Z,35.63
2018-07-19T10:28:16.806Z,35.81
2018-07-19T10:29:17.393Z,35.57
2018-07-19T10:30:17.966Z,35.48
2018-07-19T10:31:18.540Z,35.30
2018-07-19T10:32:19.265Z,35.23
2018-07-19T10:33:19.678Z,35.51
2018-07-19T10:34:20.351Z,35.86
2018-07-19T10:35:20.832Z,35.69
2018-07-19T10:36:21.412Z,35.70
2018-07-19T10:37:21.987Z,35.89
2018-07-19T10:38:22.593Z,35.77
2018-07-19T10:39:23.136Z,35.82
2018-07-19T10:40:23.715Z,35.77
2018-07-19T10:41:24.298Z,36.03
2018-07-19T10:42:24.873Z,36.30
2018-07-19T10:43:25.447Z,36.36
2018-07-19T10:44:26.059Z,36.27
2018-07-19T10:45:26.602Z,36.14
2018-07-19T10:46:27.182Z,36.07
2018-07-19T10:47:27.760Z,36.39
2018-07-19T10:48:28.341Z,36.77
2018-07-19T10:49:28.922Z,37.02
2018-07-19T10:50:29.504Z,37.10
2018-07-19T10:51:30.084Z,36.85
2018-07-19T10:52:30.660Z,36.71
2018-07-19T10:53:31.235Z,36.75
2018-07-19T10:54:31.812Z,36.73
2018-07-19T10:55:32.393Z,36.91
2018-07-19T10:56:32.973Z,37.02
2018-07-19T10:57:33.634Z,36.95
2018-07-19T10:58:34.130Z,37.04
2018-07-19T10:59:34.725Z,36.95
2018-07-19T11:00:35.288Z,36.20
2018-07-19T11:01:35.877Z,35.93
2018-07-19T11:02:36.466Z,35.69
2018-07-19T11:03:37.044Z,35.91
2018-07-19T11:04:37.626Z,35.93
2018-07-19T11:05:38.204Z,36.04
2018-07-19T11:06:38.786Z,35.77
2018-07-19T11:07:39.367Z,35.74
2018-07-19T11:08:39.933Z,35.28
2018-07-19T11:09:40.571Z,35.14
2018-07-19T11:10:41.074Z,34.79
2018-07-19T11:11:41.671Z,34.38
2018-07-19T11:12:42.328Z,34.29
2018-07-19T11:13:42.820Z,34.39
2018-07-19T11:14:43.396Z,34.45
2018-07-19T11:15:43.979Z,34.73
2018-07-19T11:16:44.556Z,34.91
2018-07-19T11:17:45.128Z,35.02
2018-07-19T11:18:45.703Z,35.37
2018-07-19T11:19:46.280Z,35.66
2018-07-19T11:20:46.868Z,35.81
2018-07-19T11:21:47.434Z,36.12
2018-07-19T11:22:48.065Z,36.20
2018-07-19T11:23:48.614Z,36.23
2018-07-19T11:24:49.154Z,36.43
2018-07-19T11:25:49.731Z,36.07
2018-07-19T11:26:50.310Z,36.41
2018-07-19T11:27:50.888Z,36.39
2018-07-19T11:28:51.469Z,36.00
2018-07-19T11:29:52.040Z,36.03
2018-07-19T11:30:52.614Z,36.20
2018-07-19T11:31:53.192Z,36.38
2018-07-19T11:32:53.770Z,35.77
2018-07-19T11:33:54.347Z,35.51
2018-07-19T11:34:54.919Z,35.42
2018-07-19T11:35:55.498Z,35.86
2018-07-19T11:36:56.075Z,36.41
2018-07-19T11:37:56.654Z,36.77
2018-07-19T11:38:57.230Z,36.99
2018-07-19T11:39:57.815Z,37.02
2018-07-19T11:40:58.389Z,37.13
2018-07-19T11:41:58.967Z,37.08
2018-07-19T11:42:59.546Z,37.13
2018-07-19T11:44:00.119Z,37.36
2018-07-19T11:45:00.693Z,37.43
2018-07-19T11:46:01.266Z,37.54
2018-07-19T11:47:01.846Z,37.54
2018-07-19T11:48:02.424Z,37.50
2018-07-19T11:49:03.004Z,37.10
2018-07-19T11:50:03.583Z,36.80
2018-07-19T11:51:04.151Z,36.73
2018-07-19T11:52:04.730Z,36.67
2018-07-19T11:53:05.364Z,36.29
2018-07-19T11:54:05.948Z,36.33
2018-07-19T11:55:06.527Z,36.65
2018-07-19T11:56:07.105Z,36.60
2018-07-19T11:57:07.690Z,36.41
2018-07-19T11:58:08.261Z,36.29
2018-07-19T11:59:08.845Z,36.46
2018-07-19T12:00:09.414Z,36.85
2018-07-19T12:01:09.986Z,37.14
2018-07-19T12:02:10.564Z,37.21
2018-07-19T12:03:11.145Z,37.12
2018-07-19T12:04:11.722Z,36.97
2018-07-19T12:05:12.311Z,36.42
2018-07-19T12:06:12.891Z,35.82
2018-07-19T12:07:13.482Z,35.51
2018-07-19T12:08:14.056Z,35.02
2018-07-19T12:09:14.624Z,34.79
2018-07-19T12:10:15.197Z,34.76
2018-07-19T12:11:15.769Z,34.63
2018-07-19T12:12:16.347Z,34.81
2018-07-19T12:13:16.922Z,35.20
2018-07-19T12:14:17.498Z,35.57
2018-07-19T12:15:18.077Z,35.79
2018-07-19T12:16:18.653Z,35.85
2018-07-19T12:17:19.229Z,35.39
2018-07-19T12:18:19.809Z,35.37
2018-07-19T12:19:20.393Z,35.42
2018-07-19T12:20:20.965Z,35.36
2018-07-19T12:21:21.549Z,35.64
2018-07-19T12:22:22.145Z,35.62
2018-07-19T12:23:22.728Z,35.74
2018-07-19T12:24:23.311Z,35.51
2018-07-19T12:25:23.884Z,35.23
2018-07-19T12:26:24.479Z,35.23
2018-07-19T12:27:25.064Z,35.23
2018-07-19T12:28:25.621Z,35.36
2018-07-19T12:29:26.198Z,35.62
2018-07-19T12:30:26.773Z,36.12
2018-07-19T12:31:27.354Z,36.38
2018-07-19T12:32:27.934Z,36.39
2018-07-19T12:33:28.512Z,36.27
2018-07-19T12:34:29.091Z,36.52
2018-07-19T12:35:29.667Z,36.54
2018-07-19T12:36:30.245Z,36.39
2018-07-19T12:37:30.815Z,36.68
2018-07-19T12:38:31.390Z,37.13
2018-07-19T12:39:31.976Z,37.41
2018-07-19T12:40:32.548Z,37.62
2018-07-19T12:41:33.132Z,37.89
2018-07-19T12:42:33.768Z,38.05
2018-07-19T12:43:34.315Z,38.08
2018-07-19T12:44:34.873Z,37.76
2018-07-19T12:45:35.512Z,37.59
2018-07-19T12:46:36.065Z,37.43
2018-07-19T12:47:36.647Z,37.10
2018-07-19T12:48:37.221Z,37.46
2018-07-19T12:49:37.796Z,37.28
2018-07-19T12:50:38.376Z,36.98
2018-07-19T12:51:38.956Z,37.07
2018-07-19T12:52:39.531Z,37.14
2018-07-19T12:53:40.107Z,37.05
2018-07-19T12:54:40.685Z,37.20
2018-07-19T12:55:41.270Z,37.62
2018-07-19T12:56:41.855Z,37.98
2018-07-19T12:57:42.415Z,38.30
2018-07-19T12:58:43.000Z,38.39
2018-07-19T12:59:43.579Z,38.49